createdAt,value
2023-05-09T00:00:55.160Z,510.00
2023-05-09T00:01:55.187Z,521.00
2023-05-09T00:02:55.130Z,515.00
2023-05-09T00:03:55.166Z,520.00
2023-05-09T00:04:55.992Z,521.00
2023-05-09T00:05:55.057Z,520.00
2023-05-09T00:06:55.030Z,515.00
2023-05-09T00:07:55.004Z,516.00
2023-05-09T00:08:54.981Z,514.00
2023-05-09T00:09:54.975Z,518.00
2023-05-09T00:10:54.968Z,520.00
2023-05-09T00:11:55.004Z,514.00
2023-05-09T00:12:55.044Z,521.00
2023-05-09T00:13:55.172Z,519.00
2023-05-09T00:14:55.137Z,522.00
2023-05-09T00:15:55.171Z,517.00
2023-05-09T00:16:55.267Z,526.00
2023-05-09T00:17:55.189Z,525.00
2023-05-09T00:18:55.151Z,524.00
2023-05-09T00:19:55.177Z,512.00
2023-05-09T00:20:55.180Z,518.00
2023-05-09T00:21:55.191Z,521.00
2023-05-09T00:22:55.195Z,521.00
2023-05-09T00:23:55.183Z,519.00
2023-05-09T00:24:55.179Z,519.00
2023-05-09T00:25:55.182Z,521.00
2023-05-09T00:26:55.203Z,520.00
2023-05-09T00:27:55.217Z,516.00
2023-05-09T00:28:55.205Z,523.00
2023-05-09T00:29:55.316Z,518.00
2023-05-09T00:30:55.203Z,517.00
2023-05-09T00:31:55.243Z,520.00
2023-05-09T00:32:55.263Z,519.00
2023-05-09T00:33:55.228Z,519.00
2023-05-09T00:34:55.228Z,519.00
2023-05-09T00:35:55.250Z,516.00
2023-05-09T00:36:55.252Z,515.00
2023-05-09T00:37:55.245Z,513.00
2023-05-09T00:38:55.248Z,512.00
2023-05-09T00:39:55.253Z,512.00
2023-05-09T00:40:55.260Z,507.00
2023-05-09T00:41:55.276Z,513.00
2023-05-09T00:42:55.291Z,517.00
2023-05-09T00:43:55.262Z,517.00
2023-05-09T00:44:55.261Z,515.00
2023-05-09T00:45:55.353Z,518.00
2023-05-09T00:46:55.193Z,509.00
2023-05-09T00:47:55.198Z,515.00
2023-05-09T00:48:55.187Z,510.00
2023-05-09T00:49:55.131Z,515.00
2023-05-09T00:50:55.129Z,514.00
2023-05-09T00:51:55.101Z,511.00
2023-05-09T00:52:55.074Z,512.00
2023-05-09T00:53:55.065Z,515.00
2023-05-09T00:54:55.044Z,513.00
2023-05-09T00:55:55.033Z,513.00
2023-05-09T00:56:55.042Z,503.00
2023-05-09T00:57:54.992Z,511.00
2023-05-09T00:58:54.973Z,508.00
2023-05-09T00:59:54.962Z,510.00
2023-05-09T01:00:54.939Z,508.00
2023-05-09T01:01:55.089Z,510.00
2023-05-09T01:02:55.002Z,511.00
2023-05-09T01:03:54.971Z,513.00
2023-05-09T01:04:54.975Z,517.00
2023-05-09T01:05:54.991Z,511.00
2023-05-09T01:06:54.996Z,514.00
2023-05-09T01:07:55.017Z,516.00
2023-05-09T01:08:55.036Z,504.00
2023-05-09T01:09:55.023Z,502.00
2023-05-09T01:10:55.060Z,506.00
2023-05-09T01:11:55.059Z,504.00
2023-05-09T01:12:55.118Z,511.00
2023-05-09T01:13:55.074Z,510.00
2023-05-09T01:14:55.105Z,508.00
2023-05-09T01:15:55.232Z,501.00
2023-05-09T01:16:55.117Z,508.00
2023-05-09T01:17:55.222Z,508.00
2023-05-09T01:18:55.133Z,506.00
2023-05-09T01:19:55.154Z,504.00
2023-05-09T01:20:55.157Z,500.00
2023-05-09T01:21:55.160Z,503.00
2023-05-09T01:22:55.191Z,504.00
2023-05-09T01:23:55.201Z,507.00
2023-05-09T01:24:55.227Z,511.00
2023-05-09T01:25:55.214Z,505.00
2023-05-09T01:26:55.226Z,506.00
2023-05-09T01:27:55.263Z,507.00
2023-05-09T01:28:55.264Z,506.00
2023-05-09T01:29:55.268Z,504.00
2023-05-09T01:30:55.288Z,500.00
2023-05-09T01:31:55.307Z,506.00
2023-05-09T01:32:55.403Z,503.00
2023-05-09T01:33:55.398Z,501.00
2023-05-09T01:34:55.311Z,504.00
2023-05-09T01:35:55.346Z,504.00
2023-05-09T01:36:55.340Z,507.00
2023-05-09T01:37:55.341Z,505.00
2023-05-09T01:38:55.353Z,504.00
2023-05-09T01:39:55.382Z,503.00
2023-05-09T01:40:55.390Z,504.00
2023-05-09T01:41:55.395Z,506.00
2023-05-09T01:42:55.427Z,511.00
2023-05-09T01:43:55.482Z,505.00
2023-05-09T01:44:55.456Z,508.00
2023-05-09T01:45:55.467Z,506.00
2023-05-09T01:46:55.567Z,503.00
2023-05-09T01:47:55.532Z,505.00
2023-05-09T01:48:55.500Z,503.00
2023-05-09T01:49:55.650Z,505.00
2023-05-09T01:50:55.552Z,504.00
2023-05-09T01:51:55.517Z,505.00
2023-05-09T01:52:55.489Z,505.00
2023-05-09T01:53:55.488Z,505.00
2023-05-09T01:54:55.450Z,505.00
2023-05-09T01:55:55.419Z,504.00
2023-05-09T01:56:55.408Z,506.00
2023-05-09T01:57:55.383Z,513.00
2023-05-09T01:58:55.374Z,510.00
2023-05-09T01:59:55.342Z,509.00
2023-05-09T02:00:55.324Z,511.00
2023-05-09T02:01:55.377Z,511.00
2023-05-09T02:02:55.482Z,511.00
2023-05-09T02:03:55.286Z,511.00
2023-05-09T02:04:55.236Z,507.00
2023-05-09T02:05:55.319Z,504.00
2023-05-09T02:06:55.193Z,500.00
2023-05-09T02:07:55.169Z,504.00
2023-05-09T02:08:55.154Z,512.00
2023-05-09T02:09:55.144Z,512.00
2023-05-09T02:10:55.125Z,509.00
2023-05-09T02:11:55.118Z,513.00
2023-05-09T02:12:55.198Z,510.00
2023-05-09T02:13:55.070Z,510.00
2023-05-09T02:14:55.057Z,512.00
2023-05-09T02:15:55.036Z,512.00
2023-05-09T02:16:55.125Z,515.00
2023-05-09T02:17:55.021Z,517.00
2023-05-09T02:18:54.976Z,514.00
2023-05-09T02:19:54.956Z,514.00
2023-05-09T02:20:54.957Z,515.00
2023-05-09T02:21:55.024Z,518.00
2023-05-09T02:22:54.880Z,517.00
2023-05-09T02:23:54.867Z,521.00
2023-05-09T02:24:54.896Z,522.00
2023-05-09T02:25:54.846Z,525.00
2023-05-09T02:26:54.814Z,521.00
2023-05-09T02:27:54.807Z,524.00
2023-05-09T02:28:54.815Z,521.00
2023-05-09T02:29:54.855Z,523.00
2023-05-09T02:30:54.857Z,521.00
2023-05-09T02:31:54.897Z,528.00
2023-05-09T02:32:54.885Z,528.00
2023-05-09T02:33:54.846Z,526.00
2023-05-09T02:34:54.813Z,529.00
2023-05-09T02:35:54.794Z,529.00
2023-05-09T02:36:54.793Z,529.00
2023-05-09T02:37:54.845Z,528.00
2023-05-09T02:38:54.737Z,526.00
2023-05-09T02:39:54.742Z,529.00
2023-05-09T02:40:54.716Z,535.00
2023-05-09T02:41:54.700Z,531.00
2023-05-09T02:42:54.699Z,534.00
2023-05-09T02:43:54.666Z,533.00
2023-05-09T02:44:54.643Z,535.00
2023-05-09T02:45:54.657Z,535.00
2023-05-09T02:46:54.622Z,535.00
2023-05-09T02:47:54.640Z,535.00
2023-05-09T02:48:54.594Z,535.00
2023-05-09T02:49:54.578Z,536.00
2023-05-09T02:50:54.577Z,539.00
2023-05-09T02:51:54.557Z,537.00
2023-05-09T02:52:54.548Z,545.00
2023-05-09T02:53:54.603Z,546.00
2023-05-09T02:54:54.507Z,547.00
2023-05-09T02:55:54.493Z,548.00
2023-05-09T02:56:54.488Z,552.00
2023-05-09T02:58:05.359Z,555.00
2023-05-09T02:58:54.437Z,555.00
2023-05-09T02:59:54.435Z,555.00
2023-05-09T03:00:54.425Z,555.00
2023-05-09T03:01:54.491Z,556.00
2023-05-09T03:02:54.453Z,558.00
2023-05-09T03:03:54.462Z,563.00
2023-05-09T03:04:54.331Z,562.00
2023-05-09T03:05:54.315Z,561.00
2023-05-09T03:06:54.319Z,560.00
2023-05-09T03:07:54.283Z,560.00
2023-05-09T03:08:54.300Z,556.00
2023-05-09T03:09:54.353Z,563.00
2023-05-09T03:10:54.304Z,562.00
2023-05-09T03:11:54.320Z,557.00
2023-05-09T03:12:54.351Z,559.00
2023-05-09T03:13:54.371Z,556.00
2023-05-09T03:14:54.366Z,564.00
2023-05-09T03:15:54.397Z,558.00
2023-05-09T03:16:54.380Z,562.00
2023-05-09T03:17:54.437Z,561.00
2023-05-09T03:18:54.409Z,569.00
2023-05-09T03:19:54.453Z,566.00
2023-05-09T03:20:54.438Z,564.00
2023-05-09T03:21:54.448Z,562.00
2023-05-09T03:22:54.468Z,560.00
2023-05-09T03:23:54.479Z,566.00
2023-05-09T03:24:54.517Z,563.00
2023-05-09T03:25:54.612Z,560.00
2023-05-09T03:26:54.541Z,558.00
2023-05-09T03:27:54.566Z,557.00
2023-05-09T03:28:54.578Z,564.00
2023-05-09T03:29:54.589Z,562.00
2023-05-09T03:30:54.622Z,565.00
2023-05-09T03:31:54.657Z,567.00
2023-05-09T03:32:54.699Z,562.00
2023-05-09T03:33:54.666Z,558.00
2023-05-09T03:34:54.703Z,560.00
2023-05-09T03:35:54.691Z,561.00
2023-05-09T03:36:54.714Z,559.00
2023-05-09T03:37:54.743Z,565.00
2023-05-09T03:38:54.777Z,561.00
2023-05-09T03:39:54.795Z,561.00
2023-05-09T03:40:54.813Z,567.00
2023-05-09T03:41:54.918Z,571.00
2023-05-09T03:42:54.843Z,571.00
2023-05-09T03:43:54.856Z,569.00
2023-05-09T03:44:54.904Z,572.00
2023-05-09T03:45:54.905Z,573.00
2023-05-09T03:46:55.032Z,570.00
2023-05-09T03:47:54.977Z,566.00
2023-05-09T03:48:54.961Z,569.00
2023-05-09T03:49:54.981Z,572.00
2023-05-09T03:50:54.981Z,572.00
2023-05-09T03:51:54.979Z,572.00
2023-05-09T03:52:54.952Z,572.00
2023-05-09T03:53:54.935Z,575.00
2023-05-09T03:54:54.922Z,572.00
2023-05-09T03:55:54.892Z,574.00
2023-05-09T03:56:54.874Z,573.00
2023-05-09T03:57:54.944Z,577.00
2023-05-09T03:58:54.848Z,577.00
2023-05-09T03:59:54.814Z,574.00
2023-05-09T04:00:54.794Z,579.00
2023-05-09T04:01:54.793Z,573.00
2023-05-09T04:02:54.811Z,578.00
2023-05-09T04:03:54.821Z,576.00
2023-05-09T04:04:54.738Z,576.00
2023-05-09T04:05:54.671Z,576.00
2023-05-09T04:06:54.653Z,577.00
2023-05-09T04:07:54.633Z,580.00
2023-05-09T04:08:54.620Z,582.00
2023-05-09T04:09:54.592Z,580.00
2023-05-09T04:10:54.588Z,580.00
2023-05-09T04:11:54.565Z,589.00
2023-05-09T04:12:54.575Z,579.00
2023-05-09T04:13:54.618Z,586.00
2023-05-09T04:14:54.503Z,583.00
2023-05-09T04:15:54.493Z,582.00
2023-05-09T04:16:54.489Z,579.00
2023-05-09T04:17:54.594Z,589.00
2023-05-09T04:18:54.440Z,580.00
2023-05-09T04:19:54.459Z,577.00
2023-05-09T04:20:54.475Z,585.00
2023-05-09T04:21:54.500Z,591.00
2023-05-09T04:22:54.518Z,582.00
2023-05-09T04:23:54.513Z,588.00
2023-05-09T04:24:54.537Z,585.00
2023-05-09T04:25:54.549Z,588.00
2023-05-09T04:26:54.575Z,584.00
2023-05-09T04:27:54.569Z,585.00
2023-05-09T04:28:54.579Z,589.00
2023-05-09T04:29:54.700Z,588.00
2023-05-09T04:30:54.771Z,587.00
2023-05-09T04:31:54.783Z,588.00
2023-05-09T04:32:54.675Z,589.00
2023-05-09T04:33:54.696Z,593.00
2023-05-09T04:34:54.694Z,592.00
2023-05-09T04:35:54.720Z,584.00
2023-05-09T04:36:54.741Z,597.00
2023-05-09T04:37:54.759Z,596.00
2023-05-09T04:38:54.793Z,591.00
2023-05-09T04:39:54.837Z,606.00
2023-05-09T04:40:54.868Z,603.00
2023-05-09T04:41:54.893Z,601.00
2023-05-09T04:42:54.909Z,596.00
2023-05-09T04:43:54.939Z,597.00
2023-05-09T04:44:54.943Z,600.00
2023-05-09T04:45:55.105Z,598.00
2023-05-09T04:46:54.998Z,602.00
2023-05-09T04:47:55.069Z,598.00
2023-05-09T04:48:55.016Z,597.00
2023-05-09T04:49:55.044Z,602.00
2023-05-09T04:50:55.074Z,598.00
2023-05-09T04:51:55.066Z,601.00
2023-05-09T04:52:55.095Z,603.00
2023-05-09T04:53:55.114Z,608.00
2023-05-09T04:54:55.134Z,597.00
2023-05-09T04:55:55.160Z,600.00
2023-05-09T04:57:55.176Z,601.00
2023-05-09T04:58:55.216Z,602.00
2023-05-09T04:59:55.214Z,599.00
2023-05-09T05:00:55.226Z,602.00
2023-05-09T05:01:55.367Z,598.00
2023-05-09T05:02:55.313Z,593.00
2023-05-09T05:03:55.278Z,601.00
2023-05-09T05:05:02.913Z,598.00
2023-05-09T05:05:56.298Z,599.00
2023-05-09T05:06:55.259Z,599.00
2023-05-09T05:07:55.272Z,599.00
2023-05-09T05:08:55.221Z,600.00
2023-05-09T05:09:55.222Z,597.00
2023-05-09T05:10:55.180Z,587.00
2023-05-09T05:12:00.741Z,589.00
2023-05-09T05:12:56.226Z,589.00
2023-05-09T05:13:55.127Z,590.00
2023-05-09T05:14:55.112Z,591.00
2023-05-09T05:15:55.114Z,591.00
2023-05-09T05:16:55.072Z,586.00
2023-05-09T05:17:55.202Z,587.00
2023-05-09T05:18:55.034Z,590.00
2023-05-09T05:19:55.024Z,588.00
2023-05-09T05:20:55.049Z,588.00
2023-05-09T05:21:54.992Z,587.00
2023-05-09T05:22:55.008Z,585.00
2023-05-09T05:23:54.952Z,587.00
2023-05-09T05:24:54.970Z,583.00
2023-05-09T05:25:54.945Z,584.00
2023-05-09T05:26:54.927Z,584.00
2023-05-09T05:27:54.910Z,584.00
2023-05-09T05:28:54.881Z,585.00
2023-05-09T05:29:54.885Z,583.00
2023-05-09T05:30:54.869Z,584.00
2023-05-09T05:31:54.875Z,586.00
2023-05-09T05:32:54.861Z,586.00
2023-05-09T05:33:54.892Z,587.00
2023-05-09T05:34:54.798Z,586.00
2023-05-09T05:35:54.765Z,620.00
2023-05-09T05:36:54.788Z,642.00
2023-05-09T05:37:54.732Z,675.00
2023-05-09T05:38:54.716Z,764.00
2023-05-09T05:39:54.698Z,852.00
2023-05-09T05:40:54.693Z,915.00
2023-05-09T05:41:54.659Z,951.00
2023-05-09T05:42:54.630Z,987.00
2023-05-09T05:43:54.688Z,988.00
2023-05-09T05:44:54.593Z,995.00
2023-05-09T05:45:54.597Z,1007.00
2023-05-09T05:46:54.533Z,1035.00
2023-05-09T05:47:54.519Z,1064.00
2023-05-09T05:48:54.471Z,1074.00
2023-05-09T05:49:54.545Z,1080.00
2023-05-09T05:50:54.454Z,1086.00
2023-05-09T05:51:54.411Z,1073.00
2023-05-09T05:52:54.377Z,1049.00
2023-05-09T05:53:54.352Z,955.00
2023-05-09T05:54:54.337Z,923.00
2023-05-09T05:55:54.308Z,833.00
2023-05-09T05:56:54.288Z,765.00
2023-05-09T05:57:54.282Z,661.00
2023-05-09T05:58:54.257Z,644.00
2023-05-09T05:59:54.226Z,644.00
2023-05-09T06:00:54.249Z,647.00
2023-05-09T06:01:54.239Z,666.00
2023-05-09T06:02:54.320Z,786.00
2023-05-09T06:03:54.273Z,913.00
2023-05-09T06:04:55.918Z,845.00
2023-05-09T06:05:54.278Z,847.00
2023-05-09T06:06:54.095Z,877.00
2023-05-09T06:07:54.075Z,1075.00
2023-05-09T06:08:54.043Z,1067.00
2023-05-09T06:09:54.043Z,1026.00
2023-05-09T06:10:54.001Z,1030.00
2023-05-09T06:11:54.030Z,1032.00
2023-05-09T06:12:53.990Z,1032.00
2023-05-09T06:13:53.950Z,1036.00
2023-05-09T06:14:53.915Z,1032.00
2023-05-09T06:15:54.258Z,1002.00
2023-05-09T06:16:53.952Z,1011.00
2023-05-09T06:17:53.886Z,1050.00
2023-05-09T06:18:55.946Z,1125.00
2023-05-09T06:19:53.813Z,1138.00
2023-05-09T06:20:53.811Z,1053.00
2023-05-09T06:21:53.869Z,995.00
2023-05-09T06:22:53.829Z,1019.00
2023-05-09T06:24:53.741Z,995.00
2023-05-09T06:25:53.711Z,997.00
2023-05-09T06:26:53.685Z,987.00
2023-05-09T06:27:54.191Z,1004.00
2023-05-09T06:28:53.655Z,1024.00
2023-05-09T06:29:53.639Z,1105.00
2023-05-09T06:30:53.597Z,1095.00
2023-05-09T06:31:53.728Z,1073.00
2023-05-09T06:32:53.646Z,1054.00
2023-05-09T06:33:53.539Z,1081.00
2023-05-09T06:34:53.543Z,1066.00
2023-05-09T06:35:53.568Z,1084.00
2023-05-09T06:36:53.480Z,976.00
2023-05-09T06:37:53.580Z,899.00
2023-05-09T06:38:53.451Z,850.00
2023-05-09T06:39:53.434Z,924.00
2023-05-09T06:40:53.410Z,978.00
2023-05-09T06:41:53.379Z,1012.00
2023-05-09T06:42:53.356Z,1103.00
2023-05-09T06:43:53.352Z,1197.00
2023-05-09T06:44:53.329Z,1229.00
2023-05-09T06:45:53.304Z,1273.00
2023-05-09T06:46:53.285Z,1315.00
2023-05-09T06:47:53.267Z,1316.00
2023-05-09T06:48:53.222Z,1352.00
2023-05-09T06:49:53.213Z,1414.00
2023-05-09T06:50:53.198Z,1439.00
2023-05-09T06:51:53.154Z,1391.00
2023-05-09T06:52:53.188Z,1335.00
2023-05-09T06:53:53.196Z,1217.00
2023-05-09T06:54:53.061Z,1006.00
2023-05-09T06:55:53.066Z,913.00
2023-05-09T06:56:53.016Z,800.00
2023-05-09T06:57:52.988Z,726.00
2023-05-09T06:58:53.010Z,728.00
2023-05-09T06:59:52.935Z,746.00
2023-05-09T07:00:52.916Z,788.00
2023-05-09T07:01:52.921Z,822.00
2023-05-09T07:02:52.940Z,740.00
2023-05-09T07:03:52.838Z,836.00
2023-05-09T07:04:52.845Z,879.00
2023-05-09T07:05:52.780Z,953.00
2023-05-09T07:06:52.787Z,1015.00
2023-05-09T07:07:52.749Z,1066.00
2023-05-09T07:08:52.715Z,1068.00
2023-05-09T07:09:55.273Z,1069.00
2023-05-09T07:10:53.676Z,1070.00
2023-05-09T07:11:52.647Z,1088.00
2023-05-09T07:12:52.697Z,1123.00
2023-05-09T07:13:52.594Z,1180.00
2023-05-09T07:14:52.546Z,1277.00
2023-05-09T07:15:52.528Z,1074.00
2023-05-09T07:16:52.611Z,1101.00
2023-05-09T07:17:52.509Z,1140.00
2023-05-09T07:18:52.452Z,1204.00
2023-05-09T07:19:52.446Z,1294.00
2023-05-09T07:20:52.391Z,1313.00
2023-05-09T07:21:52.380Z,1327.00
2023-05-09T07:22:52.388Z,1302.00
2023-05-09T07:23:52.387Z,1283.00
2023-05-09T07:24:52.310Z,1294.00
2023-05-09T07:25:52.377Z,1304.00
2023-05-09T07:26:52.209Z,1294.00
2023-05-09T07:27:52.260Z,1299.00
2023-05-09T07:28:52.159Z,1308.00
2023-05-09T07:29:52.130Z,1294.00
2023-05-09T07:30:52.094Z,1302.00
2023-05-09T07:31:52.127Z,1303.00
2023-05-09T07:32:52.222Z,1300.00
2023-05-09T07:33:52.018Z,1310.00
2023-05-09T07:34:52.168Z,1314.00
2023-05-09T07:35:51.926Z,1330.00
2023-05-09T07:36:51.938Z,1336.00
2023-05-09T07:37:51.862Z,1287.00
2023-05-09T07:38:51.928Z,1313.00
2023-05-09T07:39:51.787Z,1331.00
2023-05-09T07:40:51.749Z,1332.00
2023-05-09T07:41:51.729Z,1337.00
2023-05-09T07:42:51.671Z,1340.00
2023-05-09T07:43:51.636Z,1360.00
2023-05-09T07:44:51.629Z,1370.00
2023-05-09T07:45:51.598Z,1379.00
2023-05-09T07:46:51.529Z,1361.00
2023-05-09T07:47:51.544Z,1329.00
2023-05-09T07:48:51.486Z,1318.00
2023-05-09T07:49:51.534Z,1313.00
2023-05-09T07:50:51.557Z,1308.00
2023-05-09T07:51:51.514Z,1309.00
2023-05-09T07:52:51.477Z,1313.00
2023-05-09T07:53:51.495Z,1314.00
2023-05-09T07:54:51.421Z,1319.00
2023-05-09T07:55:51.419Z,1344.00
2023-05-09T07:56:51.360Z,1345.00
2023-05-09T07:57:51.399Z,1348.00
2023-05-09T07:58:52.146Z,1339.00
2023-05-09T07:59:51.276Z,1337.00
2023-05-09T08:00:51.269Z,1306.00
2023-05-09T08:01:51.401Z,1296.00
2023-05-09T08:02:51.370Z,1311.00
2023-05-09T08:03:51.366Z,1313.00
2023-05-09T08:04:51.338Z,1304.00
2023-05-09T08:05:51.372Z,1305.00
2023-05-09T08:06:51.375Z,1313.00
2023-05-09T08:07:51.321Z,1314.00
2023-05-09T08:08:51.287Z,1314.00
2023-05-09T08:09:51.266Z,1300.00
2023-05-09T08:10:51.238Z,1289.00
2023-05-09T08:11:51.182Z,1245.00
2023-05-09T08:12:51.173Z,1236.00
2023-05-09T08:13:51.224Z,1250.00
2023-05-09T08:14:51.089Z,1225.00
2023-05-09T08:15:51.138Z,1197.00
2023-05-09T08:16:51.017Z,1182.00
2023-05-09T08:17:51.025Z,1164.00
2023-05-09T08:18:50.983Z,1166.00
2023-05-09T08:19:50.953Z,1167.00
2023-05-09T08:20:50.909Z,1166.00
2023-05-09T08:21:50.870Z,1155.00
2023-05-09T08:22:50.842Z,1169.00
2023-05-09T08:23:50.821Z,1177.00
2023-05-09T08:24:50.793Z,1181.00
2023-05-09T08:25:50.746Z,1154.00
2023-05-09T08:26:50.734Z,1155.00
2023-05-09T08:27:53.003Z,1153.00
2023-05-09T08:28:50.677Z,1148.00
2023-05-09T08:29:50.781Z,1131.00
2023-05-09T08:30:50.697Z,1114.00
2023-05-09T08:31:50.709Z,1153.00
2023-05-09T08:32:50.731Z,961.00
2023-05-09T08:33:50.749Z,538.00
2023-05-09T08:34:50.772Z,441.00
2023-05-09T08:35:50.746Z,400.00
2023-05-09T08:36:50.732Z,400.00
2023-05-09T08:37:50.702Z,400.00
2023-05-09T08:38:50.830Z,400.00
2023-05-09T08:39:50.690Z,400.00
2023-05-09T08:40:50.651Z,400.00
2023-05-09T08:41:50.624Z,400.00
2023-05-09T08:42:50.643Z,400.00
2023-05-09T08:43:50.711Z,400.00
2023-05-09T08:44:50.595Z,400.00
2023-05-09T08:45:50.666Z,400.00
2023-05-09T08:46:50.521Z,400.00
2023-05-09T08:47:50.523Z,400.00
2023-05-09T08:48:50.465Z,400.00
2023-05-09T08:49:50.485Z,511.00
2023-05-09T08:50:50.403Z,569.00
2023-05-09T08:51:50.381Z,584.00
2023-05-09T08:52:50.360Z,488.00
2023-05-09T08:53:50.334Z,409.00
2023-05-09T08:54:50.303Z,400.00
2023-05-09T08:55:50.350Z,400.00
2023-05-09T08:56:50.381Z,400.00
2023-05-09T08:57:50.350Z,400.00
2023-05-09T08:58:50.446Z,400.00
2023-05-09T08:59:50.269Z,400.00
2023-05-09T09:00:50.344Z,400.00
2023-05-09T09:01:50.376Z,400.00
2023-05-09T09:02:50.228Z,400.00
2023-05-09T09:03:50.172Z,503.00
2023-05-09T09:04:50.204Z,586.00
2023-05-09T09:05:50.120Z,652.00
2023-05-09T09:06:50.088Z,843.00
2023-05-09T09:07:50.048Z,968.00
2023-05-09T09:08:50.053Z,1165.00
2023-05-09T09:09:50.062Z,1327.00
2023-05-09T09:10:49.976Z,1529.00
2023-05-09T09:11:49.950Z,1536.00
2023-05-09T09:12:50.223Z,1578.00
2023-05-09T09:13:49.889Z,1666.00
2023-05-09T09:14:49.828Z,1835.00
2023-05-09T09:15:49.821Z,2084.00
2023-05-09T09:16:49.825Z,2184.00
2023-05-09T09:17:49.895Z,2255.00
2023-05-09T09:18:49.695Z,2329.00
2023-05-09T09:19:49.799Z,2407.00
2023-05-09T09:20:49.608Z,2410.00
2023-05-09T09:21:49.599Z,2411.00
2023-05-09T09:22:49.561Z,2434.00
2023-05-09T09:23:49.523Z,2483.00
2023-05-09T09:24:50.543Z,2568.00
2023-05-09T09:25:49.558Z,2699.00
2023-05-09T09:26:49.408Z,2749.00
2023-05-09T09:27:49.351Z,2783.00
2023-05-09T09:28:49.323Z,2818.00
2023-05-09T09:29:49.334Z,2830.00
2023-05-09T09:30:49.262Z,2862.00
2023-05-09T09:31:49.240Z,2874.00
2023-05-09T09:32:49.267Z,2894.00
2023-05-09T09:33:49.364Z,2699.00
2023-05-09T09:34:49.396Z,2236.00
2023-05-09T09:35:49.292Z,1679.00
2023-05-09T09:36:49.329Z,1113.00
2023-05-09T09:37:49.364Z,768.00
2023-05-09T09:38:49.373Z,599.00
2023-05-09T09:39:49.397Z,511.00
2023-05-09T09:40:49.540Z,491.00
2023-05-09T09:41:49.475Z,519.00
2023-05-09T09:42:49.426Z,620.00
2023-05-09T09:43:49.445Z,819.00
2023-05-09T09:44:49.484Z,1046.00
2023-05-09T09:45:49.532Z,1264.00
2023-05-09T09:46:49.553Z,1490.00
2023-05-09T09:47:49.542Z,1494.00
2023-05-09T09:48:49.485Z,1520.00
2023-05-09T09:49:49.559Z,1528.00
2023-05-09T09:50:49.475Z,1556.00
2023-05-09T09:51:49.415Z,1616.00
2023-05-09T09:52:49.420Z,1631.00
2023-05-09T09:53:49.352Z,1682.00
2023-05-09T09:54:49.322Z,1753.00
2023-05-09T09:55:49.516Z,1834.00
2023-05-09T09:56:49.295Z,1913.00
2023-05-09T09:57:49.225Z,1980.00
2023-05-09T09:58:49.273Z,2047.00
2023-05-09T09:59:49.289Z,2126.00
2023-05-09T10:00:49.335Z,2228.00
2023-05-09T10:01:49.351Z,2291.00
2023-05-09T10:02:49.477Z,2338.00
2023-05-09T10:03:49.398Z,2412.00
2023-05-09T10:04:49.408Z,2466.00
2023-05-09T10:05:49.539Z,2488.00
2023-05-09T10:06:49.420Z,2541.00
2023-05-09T10:07:49.441Z,2599.00
2023-05-09T10:08:49.450Z,2699.00
2023-05-09T10:09:49.454Z,2744.00
2023-05-09T10:10:49.436Z,2809.00
2023-05-09T10:11:49.419Z,2848.00
2023-05-09T10:12:49.458Z,2897.00
2023-05-09T10:13:49.451Z,2907.00
2023-05-09T10:14:49.425Z,2934.00
2023-05-09T10:15:53.447Z,2983.00
2023-05-09T10:16:49.435Z,2985.00
2023-05-09T10:17:49.462Z,2992.00
2023-05-09T10:18:49.467Z,3007.00
2023-05-09T10:19:49.324Z,3001.00
2023-05-09T10:20:49.261Z,3008.00
2023-05-09T10:21:49.319Z,3015.00
2023-05-09T10:22:49.197Z,3038.00
2023-05-09T10:23:49.177Z,3043.00
2023-05-09T10:24:49.114Z,2610.00
2023-05-09T10:25:49.063Z,1977.00
2023-05-09T10:26:49.031Z,1521.00
2023-05-09T10:27:49.012Z,1295.00
2023-05-09T10:28:48.972Z,1115.00
2023-05-09T10:29:48.931Z,979.00
2023-05-09T10:30:48.923Z,1208.00
2023-05-09T10:31:48.877Z,1383.00
2023-05-09T10:32:48.836Z,1485.00
2023-05-09T10:33:48.810Z,1561.00
2023-05-09T10:34:48.748Z,1610.00
2023-05-09T10:35:48.703Z,1612.00
2023-05-09T10:36:48.670Z,1647.00
2023-05-09T10:37:48.633Z,1761.00
2023-05-09T10:38:48.591Z,2003.00
2023-05-09T10:39:48.566Z,2381.00
2023-05-09T10:40:48.517Z,2546.00
2023-05-09T10:41:48.481Z,2606.00
2023-05-09T10:42:48.441Z,2745.00
2023-05-09T10:43:48.436Z,2800.00
2023-05-09T10:44:48.378Z,2819.00
2023-05-09T10:45:48.346Z,2841.00
2023-05-09T10:46:48.334Z,2851.00
2023-05-09T10:47:48.321Z,2855.00
2023-05-09T10:48:48.360Z,2971.00
2023-05-09T10:49:48.350Z,3030.00
2023-05-09T10:50:48.350Z,2992.00
2023-05-09T10:51:48.357Z,3005.00
2023-05-09T10:52:48.366Z,3031.00
2023-05-09T10:53:48.501Z,3007.00
2023-05-09T10:54:48.390Z,2980.00
2023-05-09T10:55:48.398Z,2968.00
2023-05-09T10:56:48.403Z,3015.00
2023-05-09T10:57:48.430Z,3098.00
2023-05-09T10:58:48.434Z,3059.00
2023-05-09T10:59:48.467Z,2966.00
2023-05-09T11:00:48.465Z,2945.00
2023-05-09T11:01:48.511Z,2892.00
2023-05-09T11:02:48.626Z,2845.00
2023-05-09T11:03:48.625Z,2826.00
2023-05-09T11:04:48.778Z,2820.00
2023-05-09T11:05:48.614Z,2844.00
2023-05-09T11:06:48.631Z,2870.00
2023-05-09T11:07:48.704Z,2915.00
2023-05-09T11:08:48.690Z,2974.00
2023-05-09T11:09:48.695Z,3017.00
2023-05-09T11:10:48.703Z,3047.00
2023-05-09T11:11:48.762Z,3054.00
2023-05-09T11:12:48.761Z,3018.00
2023-05-09T11:13:48.790Z,2991.00
2023-05-09T11:14:48.819Z,2976.00
2023-05-09T11:15:48.782Z,2977.00
2023-05-09T11:16:48.724Z,2981.00
2023-05-09T11:17:48.712Z,2973.00
2023-05-09T11:18:48.606Z,2940.00
2023-05-09T11:19:48.583Z,2931.00
2023-05-09T11:20:48.550Z,2963.00
2023-05-09T11:21:48.492Z,2985.00
2023-05-09T11:22:48.469Z,2944.00
2023-05-09T11:23:48.400Z,2984.00
2023-05-09T11:24:48.428Z,2972.00
2023-05-09T11:25:48.404Z,2986.00
2023-05-09T11:26:48.316Z,2992.00
2023-05-09T11:27:48.296Z,2984.00
2023-05-09T11:28:48.315Z,2965.00
2023-05-09T11:29:48.822Z,2935.00
2023-05-09T11:30:48.349Z,2892.00
2023-05-09T11:31:48.379Z,2875.00
2023-05-09T11:32:48.444Z,2869.00
2023-05-09T11:33:48.401Z,2850.00
2023-05-09T11:34:48.411Z,2857.00
2023-05-09T11:35:48.437Z,2858.00
2023-05-09T11:36:48.409Z,2829.00
2023-05-09T11:37:48.530Z,2796.00
2023-05-09T11:38:48.480Z,2766.00
2023-05-09T11:39:48.532Z,2726.00
2023-05-09T11:40:48.473Z,2718.00
2023-05-09T11:41:48.583Z,2708.00
2023-05-09T11:42:48.519Z,2705.00
2023-05-09T11:43:48.537Z,2708.00
2023-05-09T11:44:48.546Z,2702.00
2023-05-09T11:45:48.601Z,2702.00
2023-05-09T11:46:48.596Z,2653.00
2023-05-09T11:47:48.699Z,2645.00
2023-05-09T11:48:48.617Z,2630.00
2023-05-09T11:49:48.616Z,2624.00
2023-05-09T11:50:48.640Z,2625.00
2023-05-09T11:51:48.649Z,2609.00
2023-05-09T11:52:48.649Z,2585.00
2023-05-09T11:53:48.652Z,2564.00
2023-05-09T11:54:48.692Z,2557.00
2023-05-09T11:55:48.692Z,2541.00
2023-05-09T11:56:48.707Z,2525.00
2023-05-09T11:57:48.737Z,2522.00
2023-05-09T11:58:48.694Z,2485.00
2023-05-09T11:59:48.725Z,2476.00
2023-05-09T12:00:48.734Z,2466.00
2023-05-09T12:01:48.767Z,2468.00
2023-05-09T12:02:48.827Z,2456.00
2023-05-09T12:03:48.835Z,2444.00
2023-05-09T12:04:48.802Z,2436.00
2023-05-09T12:05:48.802Z,2422.00
2023-05-09T12:06:48.840Z,2418.00
2023-05-09T12:07:48.889Z,2412.00
2023-05-09T12:08:48.883Z,2400.00
2023-05-09T12:09:48.916Z,2391.00
2023-05-09T12:10:48.892Z,2375.00
2023-05-09T12:11:49.988Z,2360.00
2023-05-09T12:12:49.115Z,2340.00
2023-05-09T12:13:49.114Z,2335.00
2023-05-09T12:14:49.025Z,2346.00
2023-05-09T12:15:49.063Z,2317.00
2023-05-09T12:16:48.998Z,2304.00
2023-05-09T12:17:51.332Z,2291.00
2023-05-09T12:18:48.963Z,2300.00
2023-05-09T12:19:48.927Z,2287.00
2023-05-09T12:20:48.898Z,2274.00